createdAt,value
2023-05-01T00:00:40.303Z,993.53
2023-05-01T00:01:40.326Z,993.61
2023-05-01T00:02:40.410Z,993.58
2023-05-01T00:03:40.458Z,993.52
2023-05-01T00:04:40.395Z,993.49
2023-05-01T00:05:40.332Z,993.50
2023-05-01T00:06:40.372Z,993.57
2023-05-01T00:07:40.378Z,993.47
2023-05-01T00:08:40.364Z,993.54
2023-05-01T00:09:40.426Z,993.56
2023-05-01T00:10:40.386Z,993.50
2023-05-01T00:11:40.417Z,993.52
2023-05-01T00:12:40.412Z,993.48
2023-05-01T00:13:40.436Z,993.48
2023-05-01T00:14:40.460Z,993.44
2023-05-01T00:15:40.460Z,993.42
2023-05-01T00:16:40.463Z,993.48
2023-05-01T00:17:40.497Z,993.44
2023-05-01T00:18:40.509Z,993.40
2023-05-01T00:19:40.533Z,993.38
2023-05-01T00:20:40.514Z,993.33
2023-05-01T00:21:40.543Z,993.37
2023-05-01T00:22:40.552Z,993.44
2023-05-01T00:23:40.550Z,993.39
2023-05-01T00:24:40.560Z,993.30
2023-05-01T00:25:40.826Z,993.33
2023-05-01T00:26:40.600Z,993.30
2023-05-01T00:27:40.607Z,993.34
2023-05-01T00:28:40.624Z,993.25
2023-05-01T00:29:40.636Z,993.24
2023-05-01T00:30:40.667Z,993.29
2023-05-01T00:31:40.693Z,993.27
2023-05-01T00:32:40.699Z,993.25
2023-05-01T00:33:40.685Z,993.29
2023-05-01T00:34:40.697Z,993.30
2023-05-01T00:35:40.725Z,993.30
2023-05-01T00:36:40.708Z,993.32
2023-05-01T00:37:40.745Z,993.31
2023-05-01T00:38:40.738Z,993.26
2023-05-01T00:39:40.732Z,993.24
2023-05-01T00:40:40.772Z,993.23
2023-05-01T00:41:40.849Z,993.22
2023-05-01T00:42:40.803Z,993.25
2023-05-01T00:43:40.795Z,993.20
2023-05-01T00:44:40.812Z,993.20
2023-05-01T00:45:40.860Z,993.22
2023-05-01T00:46:40.844Z,993.22
2023-05-01T00:47:40.869Z,993.18
2023-05-01T00:48:40.848Z,993.15
2023-05-01T00:49:40.860Z,993.16
2023-05-01T00:50:40.894Z,993.11
2023-05-01T00:51:40.880Z,993.11
2023-05-01T00:52:40.906Z,993.11
2023-05-01T00:53:40.890Z,993.04
2023-05-01T00:54:40.909Z,993.05
2023-05-01T00:55:40.975Z,993.02
2023-05-01T00:56:40.972Z,993.01
2023-05-01T00:57:40.969Z,993.03
2023-05-01T00:58:40.953Z,992.98
2023-05-01T00:59:41.004Z,993.04
2023-05-01T01:00:40.999Z,992.99
2023-05-01T01:01:41.068Z,993.01
2023-05-01T01:02:41.040Z,992.94
2023-05-01T01:03:41.020Z,992.98
2023-05-01T01:04:41.099Z,992.94
2023-05-01T01:05:41.073Z,992.97
2023-05-01T01:06:41.158Z,992.90
2023-05-01T01:07:41.082Z,992.98
2023-05-01T01:08:41.111Z,992.93
2023-05-01T01:09:41.121Z,992.91
2023-05-01T01:10:41.133Z,992.88
2023-05-01T01:11:41.138Z,992.93
2023-05-01T01:12:41.160Z,992.90
2023-05-01T01:13:41.150Z,992.89
2023-05-01T01:14:41.160Z,992.96
2023-05-01T01:15:41.199Z,992.90
2023-05-01T01:16:41.284Z,992.86
2023-05-01T01:17:41.275Z,992.80
2023-05-01T01:18:41.206Z,992.90
2023-05-01T01:19:41.252Z,992.88
2023-05-01T01:20:41.213Z,992.79
2023-05-01T01:21:41.312Z,992.84
2023-05-01T01:22:41.288Z,992.86
2023-05-01T01:23:41.283Z,992.83
2023-05-01T01:24:41.290Z,992.80
2023-05-01T01:25:41.295Z,992.80
2023-05-01T01:26:41.337Z,992.72
2023-05-01T01:27:41.354Z,992.81
2023-05-01T01:28:41.337Z,992.77
2023-05-01T01:29:41.498Z,992.72
2023-05-01T01:30:41.382Z,992.71
2023-05-01T01:31:41.551Z,992.72
2023-05-01T01:32:41.437Z,992.71
2023-05-01T01:33:41.418Z,992.67
2023-05-01T01:34:41.408Z,992.72
2023-05-01T01:35:41.408Z,992.68
2023-05-01T01:36:41.490Z,992.66
2023-05-01T01:37:41.443Z,992.63
2023-05-01T01:38:41.476Z,992.66
2023-05-01T01:39:41.464Z,992.68
2023-05-01T01:40:41.467Z,992.63
2023-05-01T01:41:41.558Z,992.65
2023-05-01T01:42:41.515Z,992.64
2023-05-01T01:43:41.501Z,992.64
2023-05-01T01:44:41.564Z,992.60
2023-05-01T01:45:41.545Z,992.56
2023-05-01T01:46:41.624Z,992.64
2023-05-01T01:47:41.727Z,992.57
2023-05-01T01:48:41.595Z,992.56
2023-05-01T01:49:41.601Z,992.55
2023-05-01T01:50:41.611Z,992.58
2023-05-01T01:51:41.639Z,992.60
2023-05-01T01:52:41.638Z,992.60
2023-05-01T01:53:41.647Z,992.57
2023-05-01T01:54:41.658Z,992.59
2023-05-01T01:55:41.831Z,992.59
2023-05-01T01:56:41.688Z,992.54
2023-05-01T01:57:41.695Z,992.54
2023-05-01T01:58:41.699Z,992.53
2023-05-01T01:59:41.700Z,992.54
2023-05-01T02:00:41.716Z,992.53
2023-05-01T02:01:41.859Z,992.53
2023-05-01T02:02:41.847Z,992.55
2023-05-01T02:03:41.878Z,992.52
2023-05-01T02:04:41.804Z,992.51
2023-05-01T02:05:41.789Z,992.51
2023-05-01T02:06:41.848Z,992.47
2023-05-01T02:07:41.835Z,992.46
2023-05-01T02:08:41.829Z,992.40
2023-05-01T02:09:41.840Z,992.52
2023-05-01T02:10:41.833Z,992.49
2023-05-01T02:11:41.853Z,992.46
2023-05-01T02:12:41.887Z,992.51
2023-05-01T02:13:41.894Z,992.48
2023-05-01T02:14:41.911Z,992.46
2023-05-01T02:15:41.955Z,992.50
2023-05-01T02:16:42.085Z,992.47
2023-05-01T02:17:41.996Z,992.47
2023-05-01T02:18:41.961Z,992.43
2023-05-01T02:19:41.963Z,992.42
2023-05-01T02:20:41.971Z,992.39
2023-05-01T02:21:41.963Z,992.47
2023-05-01T02:22:41.983Z,992.41
2023-05-01T02:23:42.037Z,992.37
2023-05-01T02:24:42.028Z,992.42
2023-05-01T02:25:42.021Z,992.33
2023-05-01T02:26:42.034Z,992.37
2023-05-01T02:27:42.049Z,992.40
2023-05-01T02:28:42.102Z,992.38
2023-05-01T02:29:42.067Z,992.38
2023-05-01T02:30:42.117Z,992.37
2023-05-01T02:31:42.107Z,992.31
2023-05-01T02:32:42.108Z,992.39
2023-05-01T02:33:42.161Z,992.36
2023-05-01T02:34:42.157Z,992.36
2023-05-01T02:35:42.145Z,992.33
2023-05-01T02:36:42.198Z,992.31
2023-05-01T02:37:42.163Z,992.32
2023-05-01T02:38:42.211Z,992.33
2023-05-01T02:39:42.222Z,992.32
2023-05-01T02:40:42.202Z,992.34
2023-05-01T02:41:42.221Z,992.37
2023-05-01T02:42:42.240Z,992.34
2023-05-01T02:43:42.248Z,992.28
2023-05-01T02:44:42.280Z,992.34
2023-05-01T02:45:42.303Z,992.28
2023-05-01T02:46:42.324Z,992.29
2023-05-01T02:47:42.316Z,992.23
2023-05-01T02:48:42.302Z,992.22
2023-05-01T02:49:42.375Z,992.28
2023-05-01T02:50:42.355Z,992.27
2023-05-01T02:51:42.346Z,992.27
2023-05-01T02:52:42.342Z,992.21
2023-05-01T02:53:42.381Z,992.26
2023-05-01T02:54:42.382Z,992.26
2023-05-01T02:55:42.394Z,992.25
2023-05-01T02:56:42.397Z,992.27
2023-05-01T02:57:42.400Z,992.26
2023-05-01T02:58:42.422Z,992.26
2023-05-01T02:59:42.458Z,992.26
2023-05-01T03:00:42.450Z,992.27
2023-05-01T03:01:42.576Z,992.21
2023-05-01T03:02:42.585Z,992.23
2023-05-01T03:03:42.506Z,992.21
2023-05-01T03:04:42.587Z,992.20
2023-05-01T03:05:42.527Z,992.19
2023-05-01T03:06:42.545Z,992.25
2023-05-01T03:07:42.569Z,992.13
2023-05-01T03:08:42.555Z,992.11
2023-05-01T03:09:42.547Z,992.13
2023-05-01T03:10:42.619Z,992.12
2023-05-01T03:11:42.577Z,992.13
2023-05-01T03:12:42.593Z,992.12
2023-05-01T03:13:42.612Z,992.13
2023-05-01T03:14:42.611Z,992.14
2023-05-01T03:15:42.670Z,992.16
2023-05-01T03:16:42.674Z,992.13
2023-05-01T03:17:42.691Z,992.15
2023-05-01T03:18:42.649Z,992.10
2023-05-01T03:19:42.731Z,992.18
2023-05-01T03:20:42.687Z,992.09
2023-05-01T03:21:42.683Z,992.15
2023-05-01T03:22:42.721Z,992.09
2023-05-01T03:23:42.738Z,992.13
2023-05-01T03:24:42.768Z,992.07
2023-05-01T03:25:42.770Z,992.11
2023-05-01T03:26:42.758Z,992.09
2023-05-01T03:27:42.757Z,992.04
2023-05-01T03:28:42.771Z,992.06
2023-05-01T03:29:42.784Z,992.11
2023-05-01T03:30:42.791Z,992.07
2023-05-01T03:31:42.864Z,992.08
2023-05-01T03:32:42.890Z,992.06
2023-05-01T03:33:42.842Z,992.03
2023-05-01T03:34:42.874Z,992.07
2023-05-01T03:35:42.896Z,992.00
2023-05-01T03:36:42.864Z,992.02
2023-05-01T03:37:42.910Z,991.98
2023-05-01T03:38:42.881Z,992.05
2023-05-01T03:39:42.922Z,991.91
2023-05-01T03:40:42.904Z,991.94
2023-05-01T03:41:42.954Z,991.98
2023-05-01T03:42:42.930Z,991.98
2023-05-01T03:43:42.961Z,991.94
2023-05-01T03:44:42.976Z,991.89
2023-05-01T03:45:44.903Z,991.94
2023-05-01T03:46:43.148Z,991.97
2023-05-01T03:47:43.021Z,991.83
2023-05-01T03:48:43.029Z,991.84
2023-05-01T03:49:43.077Z,991.90
2023-05-01T03:50:43.056Z,991.90
2023-05-01T03:51:43.076Z,991.90
2023-05-01T03:52:43.080Z,991.82
2023-05-01T03:53:43.055Z,991.86
2023-05-01T03:54:43.105Z,991.81
2023-05-01T03:55:43.108Z,991.85
2023-05-01T03:56:43.113Z,991.86
2023-05-01T03:57:43.121Z,991.78
2023-05-01T03:58:43.119Z,991.82
2023-05-01T03:59:43.165Z,991.84
2023-05-01T04:00:43.147Z,991.86
2023-05-01T04:01:43.199Z,991.83
2023-05-01T04:02:43.332Z,991.87
2023-05-01T04:03:43.332Z,991.82
2023-05-01T04:04:43.279Z,991.87
2023-05-01T04:05:43.217Z,991.84
2023-05-01T04:06:43.312Z,991.79
2023-05-01T04:07:43.251Z,991.85
2023-05-01T04:08:43.262Z,991.82
2023-05-01T04:09:43.307Z,991.87
2023-05-01T04:10:43.317Z,991.86
2023-05-01T04:11:43.317Z,991.83
2023-05-01T04:12:43.319Z,991.86
2023-05-01T04:13:43.336Z,991.93
2023-05-01T04:14:43.362Z,991.86
2023-05-01T04:15:43.388Z,991.80
2023-05-01T04:16:43.380Z,991.87
2023-05-01T04:17:43.404Z,991.87
2023-05-01T04:18:43.366Z,991.75
2023-05-01T04:19:43.374Z,991.79
2023-05-01T04:20:43.435Z,991.84
2023-05-01T04:21:43.421Z,991.80
2023-05-01T04:22:43.451Z,991.85
2023-05-01T04:23:43.472Z,991.87
2023-05-01T04:24:43.470Z,991.84
2023-05-01T04:25:43.477Z,991.85
2023-05-01T04:26:43.482Z,991.78
2023-05-01T04:27:43.524Z,991.84
2023-05-01T04:28:43.497Z,991.83
2023-05-01T04:29:43.518Z,991.74
2023-05-01T04:30:43.537Z,991.80
2023-05-01T04:31:43.605Z,991.83
2023-05-01T04:32:43.622Z,991.82
2023-05-01T04:33:43.588Z,991.78
2023-05-01T04:34:43.570Z,991.86
2023-05-01T04:35:43.604Z,991.86
2023-05-01T04:36:43.603Z,991.80
2023-05-01T04:37:43.629Z,991.80
2023-05-01T04:38:43.635Z,991.85
2023-05-01T04:39:43.640Z,991.81
2023-05-01T04:40:43.652Z,991.78
2023-05-01T04:41:43.667Z,991.83
2023-05-01T04:42:43.666Z,991.83
2023-05-01T04:43:43.701Z,991.78
2023-05-01T04:44:44.851Z,991.74
2023-05-01T04:45:43.717Z,991.82
2023-05-01T04:46:43.766Z,991.71
2023-05-01T04:47:43.831Z,991.76
2023-05-01T04:48:43.778Z,991.75
2023-05-01T04:49:43.804Z,991.76
2023-05-01T04:50:43.747Z,991.75
2023-05-01T04:51:43.800Z,991.82
2023-05-01T04:52:43.767Z,991.77
2023-05-01T04:53:43.839Z,991.74
2023-05-01T04:54:43.870Z,991.80
2023-05-01T04:55:43.831Z,991.84
2023-05-01T04:56:43.832Z,991.83
2023-05-01T04:57:43.847Z,991.76
2023-05-01T04:58:43.845Z,991.77
2023-05-01T04:59:43.868Z,991.72
2023-05-01T05:00:43.881Z,991.78
2023-05-01T05:01:43.878Z,991.80
2023-05-01T05:02:43.988Z,991.80
2023-05-01T05:03:44.991Z,991.75
2023-05-01T05:04:43.911Z,991.72
2023-05-01T05:05:43.926Z,991.77
2023-05-01T05:06:44.004Z,991.70
2023-05-01T05:07:43.934Z,991.75
2023-05-01T05:08:43.976Z,991.72
2023-05-01T05:09:43.981Z,991.69
2023-05-01T05:10:44.002Z,991.74
2023-05-01T05:11:44.013Z,991.71
2023-05-01T05:12:44.009Z,991.64
2023-05-01T05:13:44.034Z,991.75
2023-05-01T05:14:44.022Z,991.66
2023-05-01T05:15:44.032Z,991.64
2023-05-01T05:16:44.148Z,991.74
2023-05-01T05:17:44.092Z,991.72
2023-05-01T05:18:44.073Z,991.76
2023-05-01T05:19:44.128Z,991.73
2023-05-01T05:20:44.085Z,991.71
2023-05-01T05:21:44.129Z,991.72
2023-05-01T05:22:44.115Z,991.76
2023-05-01T05:23:44.144Z,991.75
2023-05-01T05:24:44.181Z,991.72
2023-05-01T05:25:44.192Z,991.67
2023-05-01T05:26:44.196Z,991.72
2023-05-01T05:27:44.221Z,991.72
2023-05-01T05:28:44.267Z,991.68
2023-05-01T05:29:44.218Z,991.67
2023-05-01T05:30:44.229Z,991.70
2023-05-01T05:31:44.291Z,991.74
2023-05-01T05:32:44.319Z,991.65
2023-05-01T05:33:44.254Z,991.68
2023-05-01T05:34:44.265Z,991.73
2023-05-01T05:35:44.272Z,991.71
2023-05-01T05:36:44.309Z,991.71
2023-05-01T05:37:45.974Z,991.71
2023-05-01T05:38:44.360Z,991.70
2023-05-01T05:39:44.321Z,991.72
2023-05-01T05:40:44.373Z,991.72
2023-05-01T05:41:44.364Z,991.65
2023-05-01T05:42:44.385Z,991.70
2023-05-01T05:43:44.380Z,991.66
2023-05-01T05:44:44.383Z,991.73
2023-05-01T05:45:44.458Z,991.75
2023-05-01T05:46:44.446Z,991.73
2023-05-01T05:47:44.473Z,991.74
2023-05-01T05:48:44.434Z,991.77
2023-05-01T05:49:44.448Z,991.79
2023-05-01T05:50:44.462Z,991.78
2023-05-01T05:51:44.478Z,991.72
2023-05-01T05:52:44.550Z,991.73
2023-05-01T05:53:44.563Z,991.79
2023-05-01T05:54:44.507Z,991.81
2023-05-01T05:55:44.533Z,991.75
2023-05-01T05:56:44.537Z,991.70
2023-05-01T05:57:44.564Z,991.73
2023-05-01T05:58:44.613Z,991.72
2023-05-01T05:59:44.596Z,991.69
2023-05-01T06:00:44.613Z,991.77
2023-05-01T06:01:44.588Z,991.71
2023-05-01T06:02:44.724Z,991.76
2023-05-01T06:03:44.699Z,991.76
2023-05-01T06:04:44.652Z,991.71
2023-05-01T06:05:44.680Z,991.70
2023-05-01T06:06:44.760Z,991.72
2023-05-01T06:07:44.682Z,991.73
2023-05-01T06:08:44.707Z,991.69
2023-05-01T06:09:44.707Z,991.69
2023-05-01T06:10:44.720Z,991.74
2023-05-01T06:11:44.773Z,991.78
2023-05-01T06:12:46.771Z,991.68
2023-05-01T06:13:44.740Z,991.75
2023-05-01T06:14:44.745Z,991.76
2023-05-01T06:15:45.198Z,991.76
2023-05-01T06:16:44.727Z,991.69
2023-05-01T06:17:44.752Z,991.70
2023-05-01T06:18:45.877Z,991.68
2023-05-01T06:19:44.736Z,991.72
2023-05-01T06:20:44.779Z,991.66
2023-05-01T06:21:44.760Z,991.61
2023-05-01T06:22:44.740Z,991.55
2023-05-01T06:23:44.759Z,991.60
2023-05-01T06:24:44.763Z,991.61
2023-05-01T06:25:44.795Z,991.64
2023-05-01T06:26:44.754Z,991.55
2023-05-01T06:27:44.769Z,991.58
2023-05-01T06:28:44.773Z,991.60
2023-05-01T06:29:44.763Z,991.60
2023-05-01T06:30:44.778Z,991.54
2023-05-01T06:31:44.858Z,991.54
2023-05-01T06:32:44.843Z,991.54
2023-05-01T06:33:44.766Z,991.47
2023-05-01T06:34:44.786Z,991.56
2023-05-01T06:35:44.765Z,991.53
2023-05-01T06:36:44.812Z,991.58
2023-05-01T06:37:44.842Z,991.54
2023-05-01T06:38:44.772Z,991.56
2023-05-01T06:39:44.777Z,991.56
2023-05-01T06:40:44.774Z,991.48
2023-05-01T06:41:44.805Z,991.46
2023-05-01T06:42:44.792Z,991.46
2023-05-01T06:43:44.765Z,991.51
2023-05-01T06:44:44.764Z,991.48
2023-05-01T06:45:44.805Z,991.50
2023-05-01T06:46:44.914Z,991.53
2023-05-01T06:47:44.790Z,991.53
2023-05-01T06:48:44.784Z,991.54
2023-05-01T06:49:44.772Z,991.48
2023-05-01T06:50:44.776Z,991.50
2023-05-01T06:51:44.789Z,991.53
2023-05-01T06:52:44.777Z,991.54
2023-05-01T06:53:44.801Z,991.50
2023-05-01T06:54:44.803Z,991.46
2023-05-01T06:55:44.765Z,991.43
2023-05-01T06:56:44.817Z,991.41
2023-05-01T06:57:44.780Z,991.40
2023-05-01T06:58:44.781Z,991.39
2023-05-01T06:59:44.803Z,991.39
2023-05-01T07:00:44.862Z,991.38
2023-05-01T07:01:44.779Z,991.39
2023-05-01T07:02:44.957Z,991.41
2023-05-01T07:03:44.801Z,991.33
2023-05-01T07:04:44.787Z,991.40
2023-05-01T07:05:44.805Z,991.33
2023-05-01T07:06:44.837Z,991.38
2023-05-01T07:07:54.148Z,991.37
2023-05-01T07:08:44.789Z,991.37
2023-05-01T07:09:44.833Z,991.36
2023-05-01T07:10:44.832Z,991.28
2023-05-01T07:11:44.833Z,991.32
2023-05-01T07:12:44.906Z,991.28
2023-05-01T07:13:44.860Z,991.32
2023-05-01T07:14:44.869Z,991.31
2023-05-01T07:15:44.833Z,991.34
2023-05-01T07:16:44.861Z,991.28
2023-05-01T07:17:44.903Z,991.26
2023-05-01T07:18:44.830Z,991.30
2023-05-01T07:19:44.875Z,991.33
2023-05-01T07:20:44.839Z,991.34
2023-05-01T07:21:44.845Z,991.34
2023-05-01T07:22:44.852Z,991.33
2023-05-01T07:23:44.866Z,991.22
2023-05-01T07:24:44.891Z,991.33
2023-05-01T07:25:44.868Z,991.33
2023-05-01T07:26:44.892Z,991.37
2023-05-01T07:27:44.847Z,991.28
2023-05-01T07:28:44.871Z,991.26
2023-05-01T07:29:44.884Z,991.22
2023-05-01T07:30:44.836Z,991.30
2023-05-01T07:31:44.893Z,991.31
2023-05-01T07:32:44.871Z,991.28
2023-05-01T07:33:44.837Z,991.30
2023-05-01T07:34:44.849Z,991.27
2023-05-01T07:35:44.861Z,991.27
2023-05-01T07:36:44.862Z,991.22
2023-05-01T07:37:44.867Z,991.17
2023-05-01T07:38:45.045Z,991.20
2023-05-01T07:39:44.924Z,991.16
2023-05-01T07:40:44.872Z,991.13
2023-05-01T07:41:44.847Z,991.19
2023-05-01T07:42:44.906Z,991.22
2023-05-01T07:43:44.902Z,991.19
2023-05-01T07:44:44.865Z,991.19
2023-05-01T07:45:44.876Z,991.14
2023-05-01T07:46:44.835Z,991.19
2023-05-01T07:47:44.885Z,991.21
2023-05-01T07:48:44.854Z,991.19
2023-05-01T07:49:44.858Z,991.16
2023-05-01T07:50:44.865Z,991.18
2023-05-01T07:51:44.851Z,991.16
2023-05-01T07:52:44.919Z,991.25
2023-05-01T07:53:44.879Z,991.17
2023-05-01T07:54:44.891Z,991.16
2023-05-01T07:55:44.913Z,991.16
2023-05-01T07:56:44.887Z,991.19
2023-05-01T07:57:44.903Z,991.16
2023-05-01T07:58:44.860Z,991.13
2023-05-01T07:59:44.879Z,991.13
2023-05-01T08:00:44.880Z,991.07
2023-05-01T08:01:44.880Z,991.05
2023-05-01T08:02:44.919Z,991.10
2023-05-01T08:03:44.938Z,991.07
2023-05-01T08:04:44.926Z,991.06
2023-05-01T08:05:44.888Z,991.16
2023-05-01T08:06:44.938Z,991.07
2023-05-01T08:07:44.888Z,991.06
2023-05-01T08:08:44.879Z,991.09
2023-05-01T08:09:44.908Z,991.11
2023-05-01T08:10:44.898Z,991.11
2023-05-01T08:11:44.908Z,991.06
2023-05-01T08:12:44.883Z,991.14
2023-05-01T08:13:44.887Z,991.05
2023-05-01T08:14:44.892Z,991.06
2023-05-01T08:15:44.925Z,991.00
2023-05-01T08:16:45.071Z,991.08
2023-05-01T08:17:44.924Z,991.10
2023-05-01T08:18:44.893Z,991.11
2023-05-01T08:19:46.618Z,991.14
2023-05-01T08:20:44.904Z,991.11
2023-05-01T08:21:44.930Z,991.09
2023-05-01T08:22:44.906Z,991.06
2023-05-01T08:23:44.895Z,991.02
2023-05-01T08:24:44.908Z,991.05
2023-05-01T08:25:44.892Z,991.03
2023-05-01T08:26:44.921Z,991.06
2023-05-01T08:27:44.930Z,991.04
2023-05-01T08:28:44.918Z,991.03
2023-05-01T08:29:44.917Z,991.00
2023-05-01T08:30:44.914Z,991.04
2023-05-01T08:31:44.976Z,991.00
2023-05-01T08:32:44.954Z,990.93
2023-05-01T08:33:44.933Z,990.97
2023-05-01T08:34:44.914Z,990.95
2023-05-01T08:35:44.938Z,990.97
2023-05-01T08:36:44.931Z,991.01
2023-05-01T08:37:44.925Z,991.03
2023-05-01T08:38:44.921Z,990.95
2023-05-01T08:39:44.923Z,990.98
2023-05-01T08:40:44.931Z,990.97
2023-05-01T08:41:44.927Z,990.89
2023-05-01T08:42:44.941Z,990.93
2023-05-01T08:43:44.976Z,990.91
2023-05-01T08:44:44.943Z,990.93
2023-05-01T08:45:44.959Z,990.87
2023-05-01T08:46:44.955Z,990.86
2023-05-01T08:47:44.981Z,990.85
2023-05-01T08:48:45.002Z,990.81
2023-05-01T08:49:44.943Z,990.92
2023-05-01T08:50:44.945Z,990.80
2023-05-01T08:51:44.932Z,990.79
2023-05-01T08:52:44.928Z,990.77
2023-05-01T08:53:44.949Z,990.72
2023-05-01T08:54:44.959Z,990.67
2023-05-01T08:56:39.150Z,990.63
2023-05-01T08:57:39.178Z,990.61
2023-05-01T08:58:39.198Z,990.65
2023-05-01T08:59:39.173Z,990.62
2023-05-01T09:00:39.200Z,990.64
2023-05-01T09:01:39.188Z,990.61
2023-05-01T09:02:39.317Z,990.60
2023-05-01T09:03:39.215Z,990.60
2023-05-01T09:04:39.176Z,990.61
2023-05-01T09:05:39.180Z,990.64
2023-05-01T09:06:39.252Z,990.65
2023-05-01T09:07:39.176Z,990.67
2023-05-01T09:08:39.228Z,990.64
2023-05-01T09:09:39.180Z,990.68
2023-05-01T09:10:39.185Z,990.64
2023-05-01T09:11:39.200Z,990.61
2023-05-01T09:12:39.217Z,990.67
2023-05-01T09:13:39.211Z,990.59
2023-05-01T09:14:39.223Z,990.59
2023-05-01T09:15:39.214Z,990.56
2023-05-01T09:16:39.282Z,990.55
2023-05-01T09:17:39.266Z,990.54
2023-05-01T09:18:39.229Z,990.62
2023-05-01T09:19:39.212Z,990.67
2023-05-01T09:20:39.208Z,990.52
2023-05-01T09:21:39.243Z,990.70
2023-05-01T09:22:39.240Z,990.62
2023-05-01T09:23:39.196Z,990.63
2023-05-01T09:24:39.214Z,990.57
2023-05-01T09:25:39.214Z,990.56
2023-05-01T09:26:39.229Z,990.56
2023-05-01T09:27:39.249Z,990.59
2023-05-01T09:28:39.215Z,990.48
2023-05-01T09:29:39.309Z,990.52
2023-05-01T09:30:39.234Z,990.54
2023-05-01T09:31:39.259Z,990.54
2023-05-01T09:32:40.850Z,990.54
2023-05-01T09:33:39.267Z,990.53
2023-05-01T09:34:39.241Z,990.52
2023-05-01T09:35:39.357Z,990.46
2023-05-01T09:36:39.421Z,990.46
2023-05-01T09:37:39.450Z,990.47
2023-05-01T09:38:39.411Z,990.37
2023-05-01T09:39:39.446Z,990.42
2023-05-01T09:40:39.434Z,990.41
2023-05-01T09:41:39.484Z,990.34
2023-05-01T09:42:39.504Z,990.34
2023-05-01T09:43:39.506Z,990.31
2023-05-01T09:44:39.502Z,990.38
2023-05-01T09:45:39.525Z,990.32
2023-05-01T09:46:39.723Z,990.28
2023-05-01T09:47:39.608Z,990.26
2023-05-01T09:48:39.572Z,990.34
2023-05-01T09:49:39.556Z,990.27
2023-05-01T09:50:39.547Z,990.25
2023-05-01T09:51:39.565Z,990.31
2023-05-01T09:52:39.584Z,990.38
2023-05-01T09:53:39.598Z,990.29
2023-05-01T09:54:39.645Z,990.34
2023-05-01T09:55:39.647Z,990.41
2023-05-01T09:56:39.632Z,990.35
2023-05-01T09:57:39.640Z,990.34
2023-05-01T09:58:39.699Z,990.29
2023-05-01T09:59:39.655Z,990.29
2023-05-01T10:00:39.696Z,990.28
2023-05-01T10:01:40.023Z,990.34
2023-05-01T10:02:39.830Z,990.21
2023-05-01T10:03:39.893Z,990.28
2023-05-01T10:04:39.735Z,990.26
2023-05-01T10:05:39.738Z,990.30
2023-05-01T10:06:39.928Z,990.29
2023-05-01T10:07:39.776Z,990.25
2023-05-01T10:08:39.791Z,990.25
2023-05-01T10:09:39.829Z,990.26
2023-05-01T10:10:39.810Z,990.23
2023-05-01T10:11:39.839Z,990.14
2023-05-01T10:12:39.835Z,990.30
2023-05-01T10:13:39.826Z,990.27
2023-05-01T10:14:39.893Z,990.29
2023-05-01T10:15:39.886Z,990.32
2023-05-01T10:16:40.020Z,990.29
2023-05-01T10:17:39.906Z,990.23
2023-05-01T10:18:39.920Z,990.19
2023-05-01T10:19:39.878Z,990.15
2023-05-01T10:20:39.949Z,990.13
2023-05-01T10:21:39.984Z,990.17
2023-05-01T10:22:39.964Z,990.10
2023-05-01T10:23:39.962Z,990.15
2023-05-01T10:24:40.031Z,990.06
2023-05-01T10:25:40.006Z,990.14
2023-05-01T10:26:40.074Z,990.12
2023-05-01T10:27:40.055Z,990.13
2023-05-01T10:28:40.031Z,990.13
2023-05-01T10:29:40.088Z,990.21
2023-05-01T10:30:40.046Z,990.15
2023-05-01T10:31:42.260Z,990.13
2023-05-01T10:32:40.135Z,990.13
2023-05-01T10:33:40.088Z,990.14
2023-05-01T10:34:40.097Z,990.19
2023-05-01T10:35:40.104Z,990.13
2023-05-01T10:36:40.147Z,990.15
2023-05-01T10:37:40.193Z,990.05
2023-05-01T10:38:40.166Z,990.09
2023-05-01T10:39:40.194Z,989.99
2023-05-01T10:40:40.353Z,989.96
2023-05-01T10:41:40.202Z,989.93
2023-05-01T10:42:40.204Z,989.98
2023-05-01T10:43:40.222Z,989.99
2023-05-01T10:44:40.272Z,990.03
2023-05-01T10:45:40.235Z,990.05
2023-05-01T10:46:40.279Z,990.04
2023-05-01T10:47:40.320Z,990.07
2023-05-01T10:48:40.316Z,989.99
2023-05-01T10:49:40.297Z,990.01
2023-05-01T10:50:40.281Z,989.98
2023-05-01T10:51:40.327Z,990.12
2023-05-01T10:52:40.348Z,989.98
2023-05-01T10:53:40.390Z,990.03
2023-05-01T10:54:40.360Z,989.97
2023-05-01T10:55:40.363Z,989.98
2023-05-01T10:56:40.380Z,989.95
2023-05-01T10:57:40.430Z,989.98
2023-05-01T10:58:40.418Z,989.95
2023-05-01T10:59:40.434Z,989.92
2023-05-01T11:00:40.449Z,989.94
2023-05-01T11:01:40.491Z,989.88
2023-05-01T11:02:40.557Z,989.85
2023-05-01T11:03:40.519Z,989.81
2023-05-01T11:04:40.477Z,989.89
2023-05-01T11:05:40.512Z,989.88
2023-05-01T11:06:40.580Z,989.87
2023-05-01T11:07:40.574Z,990.03
2023-05-01T11:08:40.550Z,989.93
2023-05-01T11:09:40.561Z,989.93
2023-05-01T11:10:40.564Z,989.95
2023-05-01T11:11:40.561Z,989.92
2023-05-01T11:12:40.590Z,989.93
2023-05-01T11:13:40.567Z,989.91
2023-05-01T11:14:40.600Z,989.94
2023-05-01T11:15:40.666Z,989.89
2023-05-01T11:16:40.824Z,989.86
2023-05-01T11:17:40.687Z,989.89
2023-05-01T11:18:40.649Z,989.81
2023-05-01T11:19:40.678Z,989.83
2023-05-01T11:20:40.690Z,989.83
2023-05-01T11:21:40.728Z,989.89
2023-05-01T11:22:40.730Z,989.85
2023-05-01T11:23:40.726Z,989.80
2023-05-01T11:24:40.744Z,989.79
2023-05-01T11:25:40.765Z,989.82
2023-05-01T11:26:40.804Z,989.88
2023-05-01T11:27:40.763Z,989.87
2023-05-01T11:28:40.782Z,989.80
2023-05-01T11:29:40.801Z,989.78
2023-05-01T11:30:40.855Z,989.83
2023-05-01T11:31:40.846Z,989.83
2023-05-01T11:32:40.864Z,989.94
2023-05-01T11:33:40.856Z,989.82
2023-05-01T11:34:40.873Z,989.83
2023-05-01T11:35:40.882Z,989.86
2023-05-01T11:36:40.867Z,989.82
2023-05-01T11:37:40.940Z,989.94
2023-05-01T11:38:40.921Z,989.86
2023-05-01T11:39:40.930Z,989.90
2023-05-01T11:40:40.940Z,989.86
2023-05-01T11:41:40.922Z,989.87
2023-05-01T11:42:41.018Z,989.89
2023-05-01T11:43:40.946Z,989.91
2023-05-01T11:44:40.981Z,989.89
2023-05-01T11:45:41.027Z,989.89
2023-05-01T11:46:40.995Z,989.90
2023-05-01T11:47:41.059Z,989.93
2023-05-01T11:48:41.048Z,989.90
2023-05-01T11:49:41.020Z,989.91
2023-05-01T11:50:41.076Z,989.92
2023-05-01T11:51:41.059Z,989.84
2023-05-01T11:52:41.096Z,989.90
2023-05-01T11:53:41.092Z,989.81
2023-05-01T11:54:41.090Z,989.87
2023-05-01T11:55:41.145Z,989.83
2023-05-01T11:56:41.150Z,989.83
2023-05-01T11:57:41.202Z,989.79
2023-05-01T11:58:41.157Z,989.74
2023-05-01T11:59:41.155Z,989.84
2023-05-01T12:00:41.211Z,989.82
2023-05-01T12:01:41.194Z,989.79
2023-05-01T12:02:41.274Z,989.88
2023-05-01T12:03:41.344Z,989.81
2023-05-01T12:04:41.237Z,989.83
2023-05-01T12:05:41.249Z,989.83
2023-05-01T12:06:41.337Z,989.79
2023-05-01T12:07:41.271Z,989.88
2023-05-01T12:08:41.293Z,989.83
2023-05-01T12:09:41.282Z,989.78
2023-05-01T12:10:41.317Z,989.84
2023-05-01T12:11:41.325Z,989.75
2023-05-01T12:12:41.340Z,989.81
2023-05-01T12:13:41.339Z,989.77
2023-05-01T12:14:41.336Z,989.80
2023-05-01T12:15:41.357Z,989.69
2023-05-01T12:16:41.395Z,989.73
2023-05-01T12:17:41.453Z,989.74
2023-05-01T12:18:41.389Z,989.72
2023-05-01T12:19:41.417Z,989.73
2023-05-01T12:20:41.456Z,989.75
2023-05-01T12:21:41.466Z,989.77
2023-05-01T12:22:41.448Z,989.73
2023-05-01T12:23:41.461Z,989.70
2023-05-01T12:24:41.479Z,989.68
2023-05-01T12:25:41.523Z,989.80
2023-05-01T12:26:41.500Z,989.80
2023-05-01T12:27:41.490Z,989.74
2023-05-01T12:28:41.504Z,989.73
2023-05-01T12:29:41.529Z,989.71